Happy Valley, Oregon
Current Conditions -  °F | °C
As of 8:53 PM on Friday 21 Nov 2014 (Local Time) from KTTD Reporting Station
Overcast Overcast  
Wind Chill: 54°   Ceiling: 5000
Heat Index: 54°   Visibility: 10mi
Dew Point: 51°   Wind: 0mph
Humidity: 90%   Direction: NA
Pressure: 29.5"   Gusts: NA
Location:  45.45°N, 122.53°W
Report Text: KTTD 220453Z 00000KT 10SM BKN050 OVC075 12/11 A2950 RMK AO2 RAE45 SLP988 P0003 T01220106
Loading
Personal Weather Stations






























Interactive Weather Map New forecast layout! Learn more

10-Day Weather Forecast

Advertisements
Track Severe Weather on mobile